Main page


Airports :

Brussels, Belgium

Brussels Airport. Zaventem

latitude: 50-54N, longitude: 004-32E, elevation: 55 m

Current weather observation

The report was made 31 minutes ago, at 16:50 UTC
Wind 2 kt from the East
Temperature 12°C
Humidity 50%
Pressure 1001 hPa
Visibility 10 km or more
no clouds below 1500 m and no cumulonimbus

METAR: EBBR 241650Z 08002KT CAVOK 12/02 Q1001 NOSIG

Time: 18:21 (17:21 UTC)


The report was made 6 hours and 11 minutes ago, at 11:10 UTC
Forecast valid from 24 at 12 UTC to 25 at 18 UTC
Wind 4 kt from the East
Visibility 10 km or more
Scattered clouds at a height of 3000 ft
Probability 40%
from 25 at 01 UTC to 25 at 08 UTC
Visibility: 3000 m
mist, Shallow fog

TAF: EBBR 241110Z 2412/2518 10004KT 9999 SCT030 PROB40 2501/2508 3000 BR MIFG

Weather observations and forecasts of more than 4000 airports (METAR and TAF reports).

The available stations are represented by yellow and red dots on the map.

Hover mouse over dot to see the name of the station.

Then click to see weather observations and forecasts.

To change the map : click on the green buttons with a black cross to zoom in, on the green button with a dash to zoom out, or on the green arrows for adjacent maps.